createdAt,value
2023-04-12T00:00:02.479Z,502.00
2023-04-12T00:01:02.497Z,501.00
2023-04-12T00:02:02.493Z,499.00
2023-04-12T00:03:02.524Z,501.00
2023-04-12T00:04:03.140Z,502.00
2023-04-12T00:05:02.630Z,506.00
2023-04-12T00:06:02.438Z,510.00
2023-04-12T00:07:02.432Z,510.00
2023-04-12T00:08:02.522Z,512.00
2023-04-12T00:09:02.471Z,512.00
2023-04-12T00:10:02.452Z,511.00
2023-04-12T00:11:02.444Z,510.00
2023-04-12T00:12:02.445Z,509.00
2023-04-12T00:13:02.426Z,509.00
2023-04-12T00:14:02.451Z,508.00
2023-04-12T00:15:02.472Z,507.00
2023-04-12T00:16:02.438Z,506.00
2023-04-12T00:17:02.418Z,506.00
2023-04-12T00:18:02.479Z,507.00
2023-04-12T00:19:02.358Z,507.00
2023-04-12T00:20:02.338Z,506.00
2023-04-12T00:21:02.394Z,506.00
2023-04-12T00:22:02.426Z,506.00
2023-04-12T00:23:02.388Z,511.00
2023-04-12T00:24:02.417Z,518.00
2023-04-12T00:25:02.417Z,521.00
2023-04-12T00:26:02.456Z,519.00
2023-04-12T00:27:02.439Z,513.00
2023-04-12T00:28:02.436Z,510.00
2023-04-12T00:29:02.443Z,510.00
2023-04-12T00:30:02.492Z,510.00
2023-04-12T00:31:02.502Z,510.00
2023-04-12T00:32:02.479Z,510.00
2023-04-12T00:33:02.557Z,508.00
2023-04-12T00:34:02.509Z,512.00
2023-04-12T00:35:02.525Z,517.00
2023-04-12T00:36:02.651Z,517.00
2023-04-12T00:37:02.562Z,519.00
2023-04-12T00:38:02.567Z,518.00
2023-04-12T00:39:02.604Z,517.00
2023-04-12T00:40:02.619Z,518.00
2023-04-12T00:41:02.643Z,519.00
2023-04-12T00:42:02.668Z,517.00
2023-04-12T00:43:02.692Z,517.00
2023-04-12T00:44:02.709Z,515.00
2023-04-12T00:45:02.736Z,514.00
2023-04-12T00:46:02.819Z,514.00
2023-04-12T00:47:02.849Z,514.00
2023-04-12T00:48:02.899Z,513.00
2023-04-12T00:49:02.885Z,516.00
2023-04-12T00:50:02.946Z,515.00
2023-04-12T00:51:03.000Z,516.00
2023-04-12T00:52:03.038Z,515.00
2023-04-12T00:53:03.069Z,515.00
2023-04-12T00:54:03.063Z,512.00
2023-04-12T00:55:03.079Z,510.00
2023-04-12T00:56:03.145Z,508.00
2023-04-12T00:57:03.205Z,507.00
2023-04-12T00:58:03.270Z,504.00
2023-04-12T00:59:03.334Z,502.00
2023-04-12T01:00:03.365Z,504.00
2023-04-12T01:01:03.434Z,503.00
2023-04-12T01:02:03.516Z,500.00
2023-04-12T01:03:03.647Z,500.00
2023-04-12T01:04:03.619Z,500.00
2023-04-12T01:05:03.609Z,498.00
2023-04-12T01:06:03.612Z,501.00
2023-04-12T01:07:03.642Z,497.00
2023-04-12T01:08:03.669Z,502.00
2023-04-12T01:09:03.697Z,505.00
2023-04-12T01:10:03.759Z,509.00
2023-04-12T01:11:03.884Z,509.00
2023-04-12T01:12:03.868Z,510.00
2023-04-12T01:13:03.928Z,511.00
2023-04-12T01:14:03.949Z,509.00
2023-04-12T01:15:03.996Z,510.00
2023-04-12T01:16:04.095Z,509.00
2023-04-12T01:17:04.050Z,506.00
2023-04-12T01:18:04.166Z,504.00
2023-04-12T01:19:04.103Z,504.00
2023-04-12T01:20:05.207Z,503.00
2023-04-12T01:21:04.165Z,505.00
2023-04-12T01:22:04.129Z,505.00
2023-04-12T01:23:04.131Z,506.00
2023-04-12T01:24:04.141Z,506.00
2023-04-12T01:25:04.128Z,509.00
2023-04-12T01:26:04.222Z,508.00
2023-04-12T01:27:04.136Z,508.00
2023-04-12T01:28:04.129Z,508.00
2023-04-12T01:29:04.128Z,508.00
2023-04-12T01:30:04.175Z,509.00
2023-04-12T01:31:04.188Z,510.00
2023-04-12T01:32:04.226Z,509.00
2023-04-12T01:33:04.149Z,510.00
2023-04-12T01:34:04.200Z,509.00
2023-04-12T01:35:04.098Z,508.00
2023-04-12T01:36:06.310Z,510.00
2023-04-12T01:37:04.134Z,508.00
2023-04-12T01:38:04.114Z,509.00
2023-04-12T01:39:04.108Z,508.00
2023-04-12T01:40:04.091Z,506.00
2023-04-12T01:41:04.083Z,507.00
2023-04-12T01:42:04.375Z,506.00
2023-04-12T01:43:04.066Z,505.00
2023-04-12T01:44:04.087Z,504.00
2023-04-12T01:45:04.057Z,504.00
2023-04-12T01:46:04.142Z,502.00
2023-04-12T01:47:04.047Z,502.00
2023-04-12T01:48:04.082Z,504.00
2023-04-12T01:49:04.058Z,507.00
2023-04-12T01:50:04.066Z,507.00
2023-04-12T01:51:04.106Z,507.00
2023-04-12T01:52:04.034Z,507.00
2023-04-12T01:53:04.037Z,512.00
2023-04-12T01:54:04.061Z,515.00
2023-04-12T01:55:04.031Z,516.00
2023-04-12T01:56:04.057Z,518.00
2023-04-12T01:57:04.026Z,515.00
2023-04-12T01:58:04.020Z,512.00
2023-04-12T01:59:04.030Z,509.00
2023-04-12T02:00:04.007Z,504.00
2023-04-12T02:01:04.035Z,500.00
2023-04-12T02:02:04.083Z,498.00
2023-04-12T02:03:04.379Z,500.00
2023-04-12T02:04:04.065Z,500.00
2023-04-12T02:05:03.988Z,501.00
2023-04-12T02:06:04.031Z,502.00
2023-04-12T02:07:03.961Z,502.00
2023-04-12T02:08:03.967Z,504.00
2023-04-12T02:09:03.958Z,503.00
2023-04-12T02:10:03.979Z,503.00
2023-04-12T02:11:03.990Z,503.00
2023-04-12T02:12:03.934Z,503.00
2023-04-12T02:13:03.932Z,501.00
2023-04-12T02:14:03.923Z,500.00
2023-04-12T02:15:03.914Z,499.00
2023-04-12T02:16:03.907Z,500.00
2023-04-12T02:17:03.921Z,498.00
2023-04-12T02:18:03.947Z,497.00
2023-04-12T02:19:03.873Z,497.00
2023-04-12T02:20:03.881Z,495.00
2023-04-12T02:21:03.885Z,493.00
2023-04-12T02:22:03.893Z,495.00
2023-04-12T02:23:03.850Z,493.00
2023-04-12T02:24:03.835Z,493.00
2023-04-12T02:25:03.837Z,495.00
2023-04-12T02:26:03.809Z,495.00
2023-04-12T02:27:03.836Z,495.00
2023-04-12T02:28:03.781Z,496.00
2023-04-12T02:29:03.783Z,497.00
2023-04-12T02:30:03.776Z,494.00
2023-04-12T02:31:03.823Z,492.00
2023-04-12T02:32:03.792Z,489.00
2023-04-12T02:33:04.897Z,490.00
2023-04-12T02:34:03.788Z,493.00
2023-04-12T02:35:03.782Z,493.00
2023-04-12T02:36:03.812Z,493.00
2023-04-12T02:37:03.781Z,492.00
2023-04-12T02:38:03.831Z,494.00
2023-04-12T02:39:03.823Z,496.00
2023-04-12T02:40:04.852Z,499.00
2023-04-12T02:41:03.860Z,501.00
2023-04-12T02:42:03.877Z,502.00
2023-04-12T02:43:03.894Z,503.00
2023-04-12T02:44:03.926Z,503.00
2023-04-12T02:45:03.942Z,504.00
2023-04-12T02:46:04.050Z,503.00
2023-04-12T02:47:03.988Z,504.00
2023-04-12T02:48:04.073Z,502.00
2023-04-12T02:49:04.017Z,502.00
2023-04-12T02:50:04.024Z,502.00
2023-04-12T02:51:04.068Z,503.00
2023-04-12T02:52:04.056Z,504.00
2023-04-12T02:53:04.057Z,504.00
2023-04-12T02:54:04.086Z,504.00
2023-04-12T02:55:04.053Z,507.00
2023-04-12T02:56:06.203Z,505.00
2023-04-12T02:57:04.049Z,505.00
2023-04-12T02:58:04.040Z,504.00
2023-04-12T02:59:04.031Z,503.00
2023-04-12T03:00:04.006Z,506.00
2023-04-12T03:01:04.039Z,504.00
2023-04-12T03:02:04.395Z,503.00
2023-04-12T03:03:04.101Z,505.00
2023-04-12T03:04:04.087Z,507.00
2023-04-12T03:05:03.943Z,508.00
2023-04-12T03:06:03.944Z,507.00
2023-04-12T03:07:03.935Z,508.00
2023-04-12T03:08:03.927Z,509.00
2023-04-12T03:09:03.922Z,499.00
2023-04-12T03:10:03.932Z,501.00
2023-04-12T03:11:03.920Z,503.00
2023-04-12T03:12:03.923Z,506.00
2023-04-12T03:13:03.897Z,503.00
2023-04-12T03:14:03.890Z,500.00
2023-04-12T03:15:03.881Z,501.00
2023-04-12T03:16:03.905Z,478.00
2023-04-12T03:17:03.875Z,504.00
2023-04-12T03:18:03.880Z,505.00
2023-04-12T03:19:03.850Z,503.00
2023-04-12T03:20:04.763Z,504.00
2023-04-12T03:21:03.877Z,475.00
2023-04-12T03:22:03.850Z,500.00
2023-04-12T03:23:03.843Z,508.00
2023-04-12T03:24:03.830Z,511.00
2023-04-12T03:25:03.827Z,511.00
2023-04-12T03:26:03.853Z,512.00
2023-04-12T03:27:03.823Z,511.00
2023-04-12T03:28:03.904Z,509.00
2023-04-12T03:29:03.894Z,504.00
2023-04-12T03:30:03.973Z,502.00
2023-04-12T03:31:03.979Z,502.00
2023-04-12T03:32:03.980Z,503.00
2023-04-12T03:33:04.032Z,504.00
2023-04-12T03:34:03.976Z,506.00
2023-04-12T03:35:03.983Z,505.00
2023-04-12T03:36:04.010Z,508.00
2023-04-12T03:37:04.059Z,508.00
2023-04-12T03:38:04.013Z,510.00
2023-04-12T03:39:04.029Z,510.00
2023-04-12T03:40:04.084Z,510.00
2023-04-12T03:41:04.111Z,509.00
2023-04-12T03:42:04.144Z,508.00
2023-04-12T03:43:04.130Z,509.00
2023-04-12T03:44:04.148Z,508.00
2023-04-12T03:45:04.177Z,510.00
2023-04-12T03:46:04.192Z,507.00
2023-04-12T03:47:04.178Z,506.00
2023-04-12T03:48:04.223Z,508.00
2023-04-12T03:49:04.176Z,509.00
2023-04-12T03:51:03.180Z,509.00
2023-04-12T03:52:04.217Z,504.00
2023-04-12T03:53:04.161Z,504.00
2023-04-12T03:54:04.155Z,505.00
2023-04-12T03:55:04.136Z,507.00
2023-04-12T03:56:04.140Z,506.00
2023-04-12T03:57:04.154Z,507.00
2023-04-12T03:58:04.237Z,507.00
2023-04-12T03:59:04.111Z,506.00
2023-04-12T04:00:04.084Z,504.00
2023-04-12T04:01:04.079Z,504.00
2023-04-12T04:02:04.216Z,499.00
2023-04-12T04:03:04.089Z,498.00
2023-04-12T04:04:04.423Z,501.00
2023-04-12T04:05:04.143Z,498.00
2023-04-12T04:06:04.017Z,502.00
2023-04-12T04:07:04.006Z,501.00
2023-04-12T04:08:03.984Z,500.00
2023-04-12T04:09:03.972Z,500.00
2023-04-12T04:10:03.976Z,496.00
2023-04-12T04:11:03.946Z,494.00
2023-04-12T04:12:03.944Z,495.00
2023-04-12T04:13:03.931Z,496.00
2023-04-12T04:14:03.927Z,499.00
2023-04-12T04:15:03.878Z,499.00
2023-04-12T04:16:03.914Z,502.00
2023-04-12T04:17:03.850Z,501.00
2023-04-12T04:18:03.882Z,498.00
2023-04-12T04:19:03.825Z,498.00
2023-04-12T04:20:03.814Z,502.00
2023-04-12T04:21:03.814Z,504.00
2023-04-12T04:22:03.823Z,505.00
2023-04-12T04:23:03.786Z,508.00
2023-04-12T04:24:03.807Z,510.00
2023-04-12T04:25:03.810Z,515.00
2023-04-12T04:26:03.796Z,519.00
2023-04-12T04:27:03.808Z,518.00
2023-04-12T04:28:03.834Z,515.00
2023-04-12T04:29:03.811Z,514.00
2023-04-12T04:30:03.840Z,514.00
2023-04-12T04:31:03.826Z,518.00
2023-04-12T04:32:03.970Z,518.00
2023-04-12T04:33:03.943Z,519.00
2023-04-12T04:34:03.846Z,520.00
2023-04-12T04:35:03.849Z,521.00
2023-04-12T04:36:03.909Z,523.00
2023-04-12T04:37:03.852Z,526.00
2023-04-12T04:38:03.843Z,526.00
2023-04-12T04:39:03.878Z,530.00
2023-04-12T04:40:03.879Z,531.00
2023-04-12T04:41:03.938Z,534.00
2023-04-12T04:42:03.970Z,534.00
2023-04-12T04:43:04.735Z,536.00
2023-04-12T04:44:04.005Z,535.00
2023-04-12T04:45:03.997Z,537.00
2023-04-12T04:46:04.060Z,539.00
2023-04-12T04:47:03.970Z,538.00
2023-04-12T04:48:04.053Z,538.00
2023-04-12T04:49:03.962Z,539.00
2023-04-12T04:50:03.970Z,537.00
2023-04-12T04:51:04.643Z,534.00
2023-04-12T04:52:03.953Z,532.00
2023-04-12T04:53:03.935Z,531.00
2023-04-12T04:54:03.942Z,534.00
2023-04-12T04:55:06.508Z,531.00
2023-04-12T04:56:03.928Z,532.00
2023-04-12T04:57:03.923Z,532.00
2023-04-12T04:58:03.927Z,531.00
2023-04-12T04:59:03.921Z,532.00
2023-04-12T05:00:03.913Z,528.00
2023-04-12T05:01:03.943Z,530.00
2023-04-12T05:02:03.980Z,529.00
2023-04-12T05:03:03.941Z,529.00
2023-04-12T05:04:03.987Z,528.00
2023-04-12T05:05:03.897Z,529.00
2023-04-12T05:06:03.855Z,524.00
2023-04-12T05:07:03.849Z,524.00
2023-04-12T05:08:03.837Z,522.00
2023-04-12T05:09:03.819Z,525.00
2023-04-12T05:10:03.799Z,525.00
2023-04-12T05:11:03.794Z,530.00
2023-04-12T05:12:03.782Z,533.00
2023-04-12T05:13:03.771Z,533.00
2023-04-12T05:14:03.734Z,533.00
2023-04-12T05:16:02.701Z,540.00
2023-04-12T05:17:03.755Z,537.00
2023-04-12T05:18:03.865Z,536.00
2023-04-12T05:19:03.656Z,534.00
2023-04-12T05:20:03.651Z,532.00
2023-04-12T05:21:03.626Z,532.00
2023-04-12T05:22:03.609Z,531.00
2023-04-12T05:23:03.607Z,531.00
2023-04-12T05:24:03.606Z,531.00
2023-04-12T05:25:03.590Z,529.00
2023-04-12T05:26:03.552Z,530.00
2023-04-12T05:27:03.542Z,527.00
2023-04-12T05:28:03.532Z,527.00
2023-04-12T05:29:03.511Z,529.00
2023-04-12T05:30:03.519Z,532.00
2023-04-12T05:31:03.554Z,536.00
2023-04-12T05:32:03.510Z,535.00
2023-04-12T05:33:03.549Z,533.00
2023-04-12T05:34:03.484Z,531.00
2023-04-12T05:35:03.423Z,531.00
2023-04-12T05:36:03.495Z,531.00
2023-04-12T05:37:03.845Z,534.00
2023-04-12T05:38:03.841Z,537.00
2023-04-12T05:39:03.368Z,537.00
2023-04-12T05:40:03.310Z,535.00
2023-04-12T05:41:03.290Z,533.00
2023-04-12T05:42:03.267Z,530.00
2023-04-12T05:43:03.365Z,527.00
2023-04-12T05:44:03.218Z,526.00
2023-04-12T05:45:03.324Z,527.00
2023-04-12T05:46:03.344Z,529.00
2023-04-12T05:47:03.218Z,530.00
2023-04-12T05:48:03.430Z,530.00
2023-04-12T05:49:03.110Z,530.00
2023-04-12T05:50:05.219Z,527.00
2023-04-12T05:51:03.062Z,527.00
2023-04-12T05:52:03.385Z,525.00
2023-04-12T05:53:03.761Z,525.00
2023-04-12T05:54:01.994Z,523.00
2023-04-12T05:55:04.408Z,523.00
2023-04-12T05:56:02.920Z,523.00
2023-04-12T05:57:03.365Z,518.00
2023-04-12T05:58:02.895Z,517.00
2023-04-12T05:59:02.865Z,514.00
2023-04-12T06:00:02.856Z,513.00
2023-04-12T06:01:02.839Z,514.00
2023-04-12T06:02:02.902Z,512.00
2023-04-12T06:03:03.540Z,511.00
2023-04-12T06:04:02.900Z,510.00
2023-04-12T06:05:02.979Z,510.00
2023-04-12T06:06:02.734Z,510.00
2023-04-12T06:07:02.661Z,514.00
2023-04-12T06:08:02.862Z,517.00
2023-04-12T06:09:02.861Z,517.00
2023-04-12T06:10:02.652Z,517.00
2023-04-12T06:11:02.565Z,516.00
2023-04-12T06:12:02.528Z,518.00
2023-04-12T06:13:02.519Z,517.00
2023-04-12T06:14:02.841Z,518.00
2023-04-12T06:15:02.466Z,517.00
2023-04-12T06:16:02.465Z,516.00
2023-04-12T06:17:02.471Z,517.00
2023-04-12T06:18:02.781Z,517.00
2023-04-12T06:19:02.842Z,519.00
2023-04-12T06:20:02.503Z,519.00
2023-04-12T06:21:02.854Z,518.00
2023-04-12T06:22:03.001Z,513.00
2023-04-12T06:23:02.544Z,512.00
2023-04-12T06:24:02.832Z,512.00
2023-04-12T06:25:02.568Z,511.00
2023-04-12T06:26:02.582Z,510.00
2023-04-12T06:27:02.554Z,508.00
2023-04-12T06:28:03.135Z,504.00
2023-04-12T06:29:02.527Z,506.00
2023-04-12T06:30:02.499Z,505.00
2023-04-12T06:31:02.508Z,506.00
2023-04-12T06:32:02.858Z,509.00
2023-04-12T06:33:02.573Z,509.00
2023-04-12T06:34:02.477Z,508.00
2023-04-12T06:35:02.430Z,506.00
2023-04-12T06:36:02.787Z,504.00
2023-04-12T06:37:03.127Z,499.00
2023-04-12T06:38:02.664Z,498.00
2023-04-12T06:39:04.139Z,499.00
2023-04-12T06:40:02.443Z,501.00
2023-04-12T06:41:02.427Z,502.00
2023-04-12T06:42:02.266Z,503.00
2023-04-12T06:43:02.240Z,496.00
2023-04-12T06:44:02.329Z,501.00
2023-04-12T06:45:02.194Z,504.00
2023-04-12T06:46:02.107Z,504.00
2023-04-12T06:47:02.516Z,505.00
2023-04-12T06:48:02.099Z,504.00
2023-04-12T06:49:02.349Z,508.00
2023-04-12T06:50:02.188Z,506.00
2023-04-12T06:51:01.965Z,506.00
2023-04-12T06:52:01.960Z,506.00
2023-04-12T06:53:01.869Z,509.00
2023-04-12T06:54:01.860Z,513.00
2023-04-12T06:55:01.809Z,505.00
2023-04-12T06:56:01.738Z,509.00
2023-04-12T06:57:01.715Z,512.00
2023-04-12T06:58:01.884Z,515.00
2023-04-12T06:59:01.714Z,514.00
2023-04-12T07:00:01.651Z,516.00
2023-04-12T07:01:01.766Z,515.00
2023-04-12T07:02:01.700Z,514.00
2023-04-12T07:03:02.029Z,512.00
2023-04-12T07:04:01.546Z,513.00
2023-04-12T07:05:01.403Z,513.00
2023-04-12T07:06:07.623Z,510.00
2023-04-12T07:07:01.389Z,511.00
2023-04-12T07:08:01.390Z,511.00
2023-04-12T07:09:01.359Z,510.00
2023-04-12T07:10:01.352Z,511.00
2023-04-12T07:11:08.941Z,512.00
2023-04-12T07:12:01.814Z,512.00
2023-04-12T07:13:01.396Z,514.00
2023-04-12T07:14:01.897Z,512.00
2023-04-12T07:15:01.168Z,513.00
2023-04-12T07:16:01.392Z,515.00
2023-04-12T07:17:01.353Z,516.00
2023-04-12T07:18:02.187Z,515.00
2023-04-12T07:19:01.332Z,514.00
2023-04-12T07:20:01.522Z,517.00
2023-04-12T07:21:01.164Z,518.00
2023-04-12T07:22:00.833Z,516.00
2023-04-12T07:23:00.776Z,515.00
2023-04-12T07:24:05.997Z,512.00
2023-04-12T07:25:01.811Z,511.00
2023-04-12T07:26:00.822Z,513.00
2023-04-12T07:27:00.624Z,518.00
2023-04-12T07:28:00.583Z,518.00
2023-04-12T07:29:02.800Z,517.00
2023-04-12T07:30:08.015Z,513.00
2023-04-12T07:30:59.954Z,512.00
2023-04-12T07:32:01.854Z,510.00
2023-04-12T07:33:16.191Z,508.00
2023-04-12T07:34:03.934Z,507.00
2023-04-12T07:35:01.415Z,503.00
2023-04-12T07:36:02.401Z,502.00
2023-04-12T07:37:05.649Z,503.00
2023-04-12T07:38:02.529Z,504.00
2023-04-12T07:39:00.910Z,505.00
2023-04-12T07:40:00.085Z,504.00
2023-04-12T07:41:00.082Z,505.00
2023-04-12T07:42:00.482Z,505.00
2023-04-12T07:43:00.369Z,503.00
2023-04-12T07:43:59.853Z,504.00
2023-04-12T07:44:59.803Z,481.00
2023-04-12T07:46:01.436Z,497.00
2023-04-12T07:46:59.874Z,498.00
2023-04-12T07:47:59.879Z,501.00
2023-04-12T07:48:59.654Z,500.00
2023-04-12T07:50:02.815Z,501.00
2023-04-12T07:50:59.530Z,501.00
2023-04-12T07:52:00.474Z,499.00
2023-04-12T07:52:59.414Z,504.00
2023-04-12T07:54:06.744Z,506.00
2023-04-12T07:55:06.211Z,506.00
2023-04-12T07:56:02.450Z,507.00
2023-04-12T07:57:04.161Z,510.00
2023-04-12T07:58:09.734Z,507.00
2023-04-12T07:59:01.810Z,514.00
2023-04-12T08:00:00.375Z,498.00
2023-04-12T08:01:01.052Z,490.00
2023-04-12T08:01:59.549Z,491.00
2023-04-12T08:03:00.812Z,510.00
2023-04-12T08:03:59.614Z,494.00
2023-04-12T08:04:59.424Z,498.00
2023-04-12T08:06:02.385Z,501.00
2023-04-12T08:06:59.102Z,501.00
2023-04-12T08:08:00.154Z,503.00
2023-04-12T08:08:59.038Z,502.00
2023-04-12T08:09:59.960Z,501.00
2023-04-12T08:10:59.898Z,501.00
2023-04-12T08:11:59.831Z,500.00
2023-04-12T08:12:58.917Z,500.00
2023-04-12T08:13:59.032Z,501.00
2023-04-12T08:14:59.447Z,501.00
2023-04-12T08:15:58.943Z,483.00
2023-04-12T08:16:59.647Z,494.00
2023-04-12T08:17:58.855Z,492.00
2023-04-12T08:18:59.784Z,491.00
2023-04-12T08:19:58.420Z,494.00
2023-04-12T08:20:58.913Z,497.00
2023-04-12T08:22:02.287Z,498.00
2023-04-12T08:22:59.116Z,496.00
2023-04-12T08:24:00.064Z,496.00
2023-04-12T08:24:58.167Z,494.00
2023-04-12T08:25:58.394Z,485.00
2023-04-12T08:26:58.041Z,485.00
2023-04-12T08:27:58.354Z,486.00
2023-04-12T08:28:57.923Z,478.00
2023-04-12T08:29:57.867Z,481.00
2023-04-12T08:30:57.933Z,452.00
2023-04-12T08:31:57.881Z,480.00
2023-04-12T08:32:57.711Z,486.00
2023-04-12T08:33:57.822Z,458.00
2023-04-12T08:34:59.101Z,481.00
2023-04-12T08:35:57.540Z,480.00
2023-04-12T08:36:57.425Z,481.00
2023-04-12T08:37:57.851Z,480.00
2023-04-12T08:38:57.341Z,480.00
2023-04-12T08:40:01.491Z,479.00
2023-04-12T08:41:00.107Z,481.00
2023-04-12T08:41:57.366Z,480.00
2023-04-12T08:43:02.766Z,481.00
2023-04-12T08:44:03.842Z,483.00
2023-04-12T08:45:03.279Z,482.00
2023-04-12T08:45:57.459Z,479.00
2023-04-12T08:46:57.971Z,477.00
2023-04-12T08:49:16.638Z,486.00
2023-04-12T08:50:17.916Z,484.00
2023-04-12T08:51:24.677Z,482.00
2023-04-12T08:52:21.851Z,482.00
2023-04-12T08:53:22.740Z,481.00
2023-04-12T08:54:22.853Z,481.00
2023-04-12T08:55:17.308Z,481.00
2023-04-12T08:56:18.220Z,482.00
2023-04-12T08:57:18.094Z,485.00
2023-04-12T08:58:24.021Z,482.00
2023-04-12T08:59:25.172Z,485.00
2023-04-12T09:00:23.512Z,490.00
2023-04-12T09:01:19.476Z,445.00
2023-04-12T09:02:17.070Z,483.00
2023-04-12T09:03:23.237Z,485.00
2023-04-12T09:04:18.594Z,475.00
2023-04-12T09:05:17.098Z,480.00
2023-04-12T09:06:17.139Z,482.00
2023-04-12T09:07:17.149Z,482.00
2023-04-12T09:08:20.434Z,482.00
2023-04-12T09:09:23.676Z,487.00
2023-04-12T09:10:17.064Z,487.00
2023-04-12T09:11:17.802Z,486.00
2023-04-12T09:12:17.111Z,488.00
2023-04-12T09:13:17.465Z,488.00
2023-04-12T09:14:22.466Z,485.00
2023-04-12T09:15:19.793Z,484.00
2023-04-12T09:16:20.380Z,464.00
2023-04-12T09:20:02.692Z,482.00
2023-04-12T09:21:00.014Z,478.00
2023-04-12T09:21:56.298Z,479.00
2023-04-12T09:22:56.563Z,478.00
2023-04-12T09:23:55.735Z,481.00
2023-04-12T09:24:57.188Z,485.00
2023-04-12T09:25:56.479Z,487.00
2023-04-12T09:26:56.582Z,489.00
2023-04-12T09:27:56.540Z,487.00
2023-04-12T09:28:56.560Z,488.00
2023-04-12T09:29:59.002Z,487.00
2023-04-12T09:30:56.631Z,489.00
2023-04-12T09:31:56.607Z,486.00
2023-04-12T09:32:56.559Z,485.00
2023-04-12T09:33:57.221Z,488.00
2023-04-12T09:34:56.500Z,426.00
2023-04-12T09:35:56.518Z,487.00
2023-04-12T09:36:56.491Z,477.00
2023-04-12T09:37:56.586Z,480.00
2023-04-12T09:39:04.215Z,480.00
2023-04-12T09:39:56.449Z,483.00
2023-04-12T09:40:56.409Z,473.00
2023-04-12T09:41:56.416Z,482.00
2023-04-12T09:42:56.619Z,482.00
2023-04-12T09:43:56.680Z,482.00
2023-04-12T09:44:56.549Z,484.00
2023-04-12T09:45:56.604Z,472.00
2023-04-12T09:46:59.627Z,494.00
2023-04-12T09:47:56.381Z,493.00
2023-04-12T09:48:56.246Z,409.00
2023-04-12T09:49:56.537Z,493.00
2023-04-12T09:50:57.560Z,484.00
2023-04-12T09:51:58.238Z,491.00
2023-04-12T09:52:56.374Z,487.00
2023-04-12T09:53:56.426Z,470.00
2023-04-12T09:54:56.157Z,479.00
2023-04-12T09:55:56.082Z,479.00
2023-04-12T09:56:56.061Z,476.00
2023-04-12T09:57:56.064Z,461.00
2023-04-12T09:58:56.293Z,470.00
2023-04-12T09:59:56.031Z,474.00
2023-04-12T10:00:55.957Z,483.00
2023-04-12T10:01:56.082Z,472.00
2023-04-12T10:02:56.636Z,472.00
2023-04-12T10:03:56.046Z,468.00
2023-04-12T10:04:56.885Z,473.00
2023-04-12T10:05:56.080Z,477.00
2023-04-12T10:06:55.889Z,476.00
2023-04-12T10:07:56.159Z,475.00
2023-04-12T10:08:56.064Z,474.00
2023-04-12T10:09:56.032Z,476.00
2023-04-12T10:10:55.972Z,472.00
2023-04-12T10:11:55.974Z,481.00
2023-04-12T10:12:55.995Z,481.00
2023-04-12T10:13:56.631Z,477.00
2023-04-12T10:14:56.250Z,482.00
2023-04-12T10:15:56.038Z,482.00
2023-04-12T10:16:56.963Z,480.00
2023-04-12T10:17:56.200Z,479.00
2023-04-12T10:18:56.397Z,481.00
2023-04-12T10:19:55.965Z,483.00
2023-04-12T10:20:55.926Z,481.00
2023-04-12T10:21:55.923Z,481.00
2023-04-12T10:22:55.870Z,478.00
2023-04-12T10:23:56.048Z,483.00
2023-04-12T10:24:56.054Z,485.00
2023-04-12T10:25:55.984Z,486.00
2023-04-12T10:26:56.291Z,485.00
2023-04-12T10:27:55.823Z,483.00
2023-04-12T10:28:56.139Z,488.00
2023-04-12T10:29:56.245Z,477.00
2023-04-12T10:30:56.126Z,481.00
2023-04-12T10:31:55.979Z,456.00
2023-04-12T10:32:55.929Z,477.00
2023-04-12T10:33:56.107Z,480.00
2023-04-12T10:34:55.925Z,486.00
2023-04-12T10:35:55.967Z,492.00
2023-04-12T10:36:55.897Z,492.00
2023-04-12T10:37:55.945Z,411.00
2023-04-12T10:38:56.445Z,458.00
2023-04-12T10:39:55.909Z,442.00
2023-04-12T10:40:55.921Z,483.00
2023-04-12T10:41:55.942Z,484.00
2023-04-12T10:42:56.048Z,483.00
2023-04-12T10:43:55.888Z,476.00
2023-04-12T10:44:56.571Z,479.00
2023-04-12T10:45:55.996Z,464.00
2023-04-12T10:46:55.884Z,485.00
2023-04-12T10:47:56.252Z,487.00
2023-04-12T10:48:59.780Z,486.00
2023-04-12T10:49:56.846Z,484.00
2023-04-12T10:50:55.730Z,484.00
2023-04-12T10:51:55.764Z,483.00
2023-04-12T10:52:55.658Z,482.00
2023-04-12T10:53:55.739Z,479.00
2023-04-12T10:54:55.932Z,486.00
2023-04-12T10:55:55.483Z,470.00
2023-04-12T10:56:55.478Z,474.00
2023-04-12T10:57:55.515Z,479.00
2023-04-12T10:58:55.643Z,480.00
2023-04-12T10:59:55.592Z,478.00
2023-04-12T11:00:55.762Z,483.00
2023-04-12T11:01:55.898Z,493.00
2023-04-12T11:02:56.503Z,484.00
2023-04-12T11:03:56.599Z,476.00
2023-04-12T11:04:55.871Z,474.00
2023-04-12T11:05:55.877Z,477.00
2023-04-12T11:06:57.595Z,482.00
2023-04-12T11:07:55.806Z,480.00
2023-04-12T11:08:56.932Z,477.00
2023-04-12T11:09:55.756Z,487.00
2023-04-12T11:10:55.792Z,483.00
2023-04-12T11:11:55.842Z,482.00
2023-04-12T11:12:55.850Z,479.00
2023-04-12T11:13:56.008Z,477.00
2023-04-12T11:14:55.908Z,474.00
2023-04-12T11:15:55.942Z,459.00
2023-04-12T11:16:56.035Z,493.00
2023-04-12T11:17:56.007Z,467.00
2023-04-12T11:18:56.202Z,477.00
2023-04-12T11:19:56.061Z,491.00
2023-04-12T11:20:56.011Z,490.00
2023-04-12T11:21:55.987Z,491.00
2023-04-12T11:22:56.050Z,485.00
2023-04-12T11:23:56.066Z,486.00
2023-04-12T11:24:56.115Z,485.00
2023-04-12T11:25:56.140Z,487.00
2023-04-12T11:26:56.159Z,482.00
2023-04-12T11:27:56.132Z,481.00
2023-04-12T11:28:56.406Z,482.00
2023-04-12T11:29:56.211Z,485.00
2023-04-12T11:30:56.316Z,484.00
2023-04-12T11:31:56.350Z,487.00
2023-04-12T11:32:56.308Z,489.00
2023-04-12T11:33:56.319Z,491.00
2023-04-12T11:34:56.363Z,487.00
2023-04-12T11:35:56.384Z,489.00
2023-04-12T11:36:56.404Z,494.00
2023-04-12T11:37:56.437Z,418.00
2023-04-12T11:38:56.748Z,480.00
2023-04-12T11:39:56.506Z,483.00
2023-04-12T11:40:56.564Z,480.00
2023-04-12T11:41:57.062Z,488.00
2023-04-12T11:42:56.604Z,470.00
2023-04-12T11:43:56.614Z,479.00
2023-04-12T11:45:00.163Z,484.00
2023-04-12T11:45:56.713Z,484.00
2023-04-12T11:46:57.065Z,479.00
2023-04-12T11:47:56.718Z,478.00
2023-04-12T11:48:56.941Z,478.00
2023-04-12T11:49:56.687Z,472.00
2023-04-12T11:51:07.770Z,479.00
2023-04-12T11:51:56.715Z,480.00
2023-04-12T11:52:56.692Z,474.00
2023-04-12T11:53:57.332Z,480.00
2023-04-12T11:54:56.776Z,480.00
2023-04-12T11:55:56.686Z,478.00
2023-04-12T11:56:57.063Z,475.00
2023-04-12T11:57:57.031Z,478.00
2023-04-12T11:58:56.702Z,479.00
2023-04-12T11:59:56.721Z,480.00
2023-04-12T12:00:57.077Z,487.00
2023-04-12T12:01:56.714Z,476.00
2023-04-12T12:03:57.014Z,482.00
2023-04-12T12:04:56.807Z,480.00
2023-04-12T12:05:57.488Z,483.00
2023-04-12T12:06:57.277Z,483.00
2023-04-12T12:07:56.598Z,483.00
2023-04-12T12:08:57.092Z,485.00
2023-04-12T12:09:56.570Z,487.00
2023-04-12T12:11:07.230Z,486.00
2023-04-12T12:11:56.476Z,475.00
2023-04-12T12:12:56.441Z,476.00
2023-04-12T12:13:56.570Z,477.00
2023-04-12T12:14:59.069Z,478.00
2023-04-12T12:15:56.330Z,478.00
2023-04-12T12:16:57.096Z,481.00
2023-04-12T12:17:56.290Z,479.00
2023-04-12T12:18:56.257Z,480.00
2023-04-12T12:19:56.253Z,478.00
2023-04-12T12:20:56.369Z,478.00
2023-04-12T12:21:56.596Z,475.00
2023-04-12T12:22:56.321Z,472.00
2023-04-12T12:23:57.022Z,473.00
2023-04-12T12:24:56.335Z,471.00
2023-04-12T12:26:06.038Z,473.00
2023-04-12T12:26:56.460Z,474.00
2023-04-12T12:27:56.411Z,476.00
2023-04-12T12:28:56.594Z,468.00
2023-04-12T12:29:56.444Z,472.00
2023-04-12T12:30:56.570Z,470.00
2023-04-12T12:31:56.991Z,473.00
2023-04-12T12:32:56.633Z,475.00
2023-04-12T12:33:57.398Z,478.00
2023-04-12T12:34:56.692Z,477.00